createdAt,value
2023-07-18T00:03:11.017Z,92.20
2023-07-18T00:08:13.571Z,91.00
2023-07-18T00:13:16.030Z,87.60
2023-07-18T00:18:18.809Z,84.50
2023-07-18T00:23:21.422Z,80.10
2023-07-18T00:28:24.414Z,80.10
2023-07-18T00:33:27.255Z,78.90
2023-07-18T00:38:29.742Z,79.70
2023-07-18T00:43:35.488Z,80.20
2023-07-18T00:48:39.553Z,80.80
2023-07-18T00:53:42.481Z,80.90
2023-07-18T00:58:45.708Z,81.30
2023-07-18T01:03:48.318Z,81.10
2023-07-18T01:08:50.906Z,82.30
2023-07-18T01:13:53.349Z,82.30
2023-07-18T01:18:56.012Z,83.00
2023-07-18T01:23:58.516Z,83.30
2023-07-18T01:29:01.001Z,83.80
2023-07-18T01:34:06.195Z,82.90
2023-07-18T01:39:09.609Z,82.70
2023-07-18T01:44:12.138Z,82.70
2023-07-18T01:49:14.664Z,82.50
2023-07-18T01:54:17.252Z,83.60
2023-07-18T01:59:20.118Z,84.20
2023-07-18T02:04:22.992Z,85.80
2023-07-18T02:09:25.523Z,86.80
2023-07-18T02:14:28.002Z,85.70
2023-07-18T02:19:30.607Z,87.40
2023-07-18T02:24:33.496Z,83.90
2023-07-18T02:29:36.413Z,82.80
2023-07-18T02:34:39.661Z,78.20
2023-07-18T02:39:45.772Z,79.50
2023-07-18T02:44:49.458Z,74.40
2023-07-18T02:49:52.041Z,70.30
2023-07-18T02:54:55.108Z,79.00
2023-07-18T02:59:58.305Z,81.40
2023-07-18T03:05:00.962Z,80.60
2023-07-18T03:10:04.791Z,81.40
2023-07-18T03:15:08.367Z,82.80
2023-07-18T03:25:25.726Z,79.00
2023-07-18T03:30:28.338Z,89.70
2023-07-18T03:35:30.993Z,90.20
2023-07-18T03:40:34.643Z,92.90
2023-07-18T03:45:37.178Z,97.10
2023-07-18T03:50:43.259Z,96.90
2023-07-18T03:55:46.266Z,96.10
2023-07-18T04:00:48.795Z,96.20
2023-07-18T04:05:52.546Z,95.30
2023-07-18T04:10:56.133Z,93.90
2023-07-18T04:15:59.460Z,93.80
2023-07-18T04:21:02.840Z,93.60
2023-07-18T04:26:05.493Z,92.60
2023-07-18T04:31:08.071Z,87.30
2023-07-18T04:36:10.621Z,85.30
2023-07-18T04:41:20.256Z,87.90
2023-07-18T04:46:23.160Z,86.70
2023-07-18T04:51:25.993Z,85.30
2023-07-18T04:56:28.476Z,72.20
2023-07-18T05:01:31.072Z,72.70
2023-07-18T05:06:33.832Z,75.70
2023-07-18T05:11:36.360Z,52.60
2023-07-18T05:16:38.952Z,47.20
2023-07-18T05:21:41.554Z,49.70
2023-07-18T05:26:44.173Z,50.00
2023-07-18T05:31:46.657Z,47.80
2023-07-18T05:36:49.169Z,50.70
2023-07-18T05:41:51.785Z,51.30
2023-07-18T05:46:54.251Z,49.70
2023-07-18T05:51:56.844Z,53.60
2023-07-18T05:57:02.053Z,57.60
2023-07-18T06:02:05.335Z,55.40
2023-07-18T06:07:14.344Z,58.40
2023-07-18T06:12:17.433Z,58.60
2023-07-18T06:17:20.095Z,58.20
2023-07-18T06:22:22.622Z,57.90
2023-07-18T06:27:27.855Z,55.50
2023-07-18T06:32:31.606Z,58.20
2023-07-18T06:37:34.156Z,55.30
2023-07-18T06:42:36.596Z,54.80
2023-07-18T06:47:39.285Z,51.30
2023-07-18T06:52:41.922Z,51.50
2023-07-18T06:57:44.934Z,47.30
2023-07-18T07:02:48.426Z,48.90
2023-07-18T07:07:51.011Z,50.50
2023-07-18T07:12:57.324Z,48.30
2023-07-18T07:18:01.862Z,43.70
2023-07-18T07:23:04.469Z,45.60
2023-07-18T07:28:07.135Z,43.80
2023-07-18T07:33:10.166Z,42.80
2023-07-18T07:38:12.725Z,40.30
2023-07-18T07:43:15.432Z,42.00
2023-07-18T07:48:18.200Z,40.00
2023-07-18T07:53:20.998Z,35.80
2023-07-18T07:58:23.583Z,35.00
2023-07-18T08:03:26.093Z,35.90
2023-07-18T08:08:28.721Z,34.00
2023-07-18T08:13:31.253Z,37.70
2023-07-18T08:18:34.653Z,28.10
2023-07-18T08:23:37.228Z,33.60
2023-07-18T08:28:39.832Z,28.20
2023-07-18T08:33:42.488Z,35.20
2023-07-18T08:38:51.008Z,32.30
2023-07-18T08:43:54.174Z,34.30
2023-07-18T08:48:56.822Z,34.00
2023-07-18T08:53:59.398Z,29.90
2023-07-18T08:59:02.678Z,31.50
2023-07-18T09:04:05.281Z,27.80
2023-07-18T09:09:17.167Z,25.60
2023-07-18T09:14:28.138Z,27.40
2023-07-18T09:19:38.374Z,22.50
2023-07-18T09:24:43.341Z,21.60
2023-07-18T09:29:48.531Z,22.30
2023-07-18T09:35:01.834Z,21.90
2023-07-18T09:40:04.813Z,22.40
2023-07-18T09:45:11.924Z,20.80
2023-07-18T09:50:15.205Z,21.30
2023-07-18T09:55:28.561Z,22.20
2023-07-18T10:00:31.746Z,19.40
2023-07-18T10:05:35.064Z,21.80
2023-07-18T10:10:37.759Z,20.40
2023-07-18T10:16:15.339Z,20.20
2023-07-18T10:21:32.768Z,19.70
2023-07-18T10:26:35.582Z,19.50
2023-07-18T10:31:38.715Z,19.10
2023-07-18T10:36:54.818Z,18.30
2023-07-18T10:42:08.210Z,19.70
2023-07-18T10:47:18.350Z,17.60
2023-07-18T10:52:22.119Z,15.80
2023-07-18T10:57:36.088Z,17.10
2023-07-18T11:02:43.082Z,16.40
2023-07-18T11:07:50.069Z,17.30
2023-07-18T11:12:54.109Z,15.80
2023-07-18T11:17:56.907Z,12.70
2023-07-18T11:22:59.870Z,13.50
2023-07-18T11:28:04.776Z,15.60
2023-07-18T11:33:16.945Z,15.50
2023-07-18T11:43:30.795Z,17.40
2023-07-18T11:48:34.661Z,17.20
2023-07-18T11:53:37.363Z,12.90
2023-07-18T11:58:39.692Z,14.60
2023-07-18T12:03:42.277Z,15.60
2023-07-18T12:08:44.910Z,13.20
2023-07-18T12:13:47.504Z,15.70
2023-07-18T12:18:50.011Z,15.20
2023-07-18T12:23:52.663Z,16.70
2023-07-18T12:28:55.533Z,18.10
2023-07-18T12:33:58.080Z,17.00
2023-07-18T12:39:00.592Z,17.10
2023-07-18T12:44:03.279Z,16.50
2023-07-18T12:49:05.778Z,17.10
2023-07-18T12:54:09.459Z,16.50
2023-07-18T12:59:11.963Z,13.70
2023-07-18T13:04:14.469Z,16.90
2023-07-18T13:09:17.410Z,13.30
2023-07-18T13:14:23.033Z,11.70
2023-07-18T13:19:54.661Z,13.70
2023-07-18T13:24:57.279Z,9.20
2023-07-18T13:29:59.856Z,9.10
2023-07-18T13:35:02.493Z,11.80
2023-07-18T13:40:05.596Z,14.30
2023-07-18T13:45:11.282Z,11.90
2023-07-18T13:55:19.613Z,9.70
2023-07-18T14:00:22.465Z,10.20
2023-07-18T14:05:31.078Z,9.10
2023-07-18T14:10:33.730Z,9.70
2023-07-18T14:15:36.274Z,12.90
2023-07-18T14:20:39.107Z,10.00
2023-07-18T14:25:41.670Z,8.30
2023-07-18T14:30:45.080Z,7.80
2023-07-18T14:35:47.699Z,9.50
2023-07-18T14:40:50.919Z,10.60
2023-07-18T14:45:53.419Z,8.50
2023-07-18T14:51:00.501Z,8.50
2023-07-18T14:56:04.913Z,10.30
2023-07-18T15:01:07.842Z,10.10
2023-07-18T15:06:10.439Z,10.90
2023-07-18T15:11:12.987Z,11.30
2023-07-18T15:16:15.638Z,9.60
2023-07-18T15:21:18.319Z,9.20
2023-07-18T15:26:21.321Z,9.10
2023-07-18T15:31:24.228Z,12.50
2023-07-18T15:36:28.678Z,10.10
2023-07-18T15:47:27.666Z,8.90
2023-07-18T15:52:30.207Z,7.80
2023-07-18T15:57:32.833Z,7.50
2023-07-18T16:02:38.497Z,7.80
2023-07-18T16:07:41.175Z,7.20
2023-07-18T16:12:43.662Z,7.60
2023-07-18T16:17:46.325Z,7.60
2023-07-18T16:22:51.888Z,7.80
2023-07-18T16:27:54.794Z,7.90
2023-07-18T16:32:58.092Z,8.40
2023-07-18T16:38:01.055Z,9.60
2023-07-18T16:43:06.041Z,8.70
2023-07-18T16:48:08.730Z,8.10
2023-07-18T16:53:11.254Z,9.40
2023-07-18T16:58:14.611Z,9.30
2023-07-18T17:03:17.316Z,9.60
2023-07-18T17:22:21.696Z,7.90
2023-07-18T17:27:24.260Z,11.70
2023-07-18T17:32:26.804Z,8.10
2023-07-18T17:37:29.383Z,7.40
2023-07-18T17:42:31.970Z,7.80
2023-07-18T17:47:34.506Z,7.90
2023-07-18T17:52:37.174Z,8.00
2023-07-18T17:57:40.800Z,8.30
2023-07-18T18:02:43.420Z,8.50
2023-07-18T18:07:46.011Z,8.50
2023-07-18T18:12:48.621Z,9.60
2023-07-18T18:17:51.247Z,11.10
2023-07-18T18:22:53.850Z,11.80
2023-07-18T18:27:56.563Z,12.30
2023-07-18T18:32:59.206Z,13.70
2023-07-18T18:38:01.843Z,14.10
2023-07-18T18:43:04.347Z,16.40
2023-07-18T18:48:08.035Z,17.80
2023-07-18T18:53:10.678Z,20.10
2023-07-18T18:58:14.438Z,21.80
2023-07-18T19:03:17.436Z,26.20
2023-07-18T19:08:19.955Z,26.40
2023-07-18T19:13:25.230Z,27.10
2023-07-18T19:18:27.816Z,27.80
2023-07-18T19:23:30.898Z,29.30
2023-07-18T19:28:33.648Z,29.40
2023-07-18T19:33:36.207Z,31.20
2023-07-18T19:38:40.618Z,33.10
2023-07-18T19:43:43.252Z,36.00
2023-07-18T19:48:46.855Z,34.90
2023-07-18T19:53:49.343Z,38.20
2023-07-18T19:58:51.844Z,40.80
2023-07-18T20:03:59.711Z,41.40
2023-07-18T20:09:03.532Z,42.70
2023-07-18T20:14:06.131Z,44.60
2023-07-18T20:19:08.657Z,47.70
2023-07-18T20:24:11.339Z,49.60
2023-07-18T20:29:13.941Z,51.80
2023-07-18T20:34:16.460Z,56.10
2023-07-18T20:39:19.070Z,63.90
2023-07-18T20:44:21.638Z,68.30
2023-07-18T20:49:27.867Z,71.30
2023-07-18T20:54:33.699Z,72.90
2023-07-18T20:59:36.177Z,72.90
2023-07-18T21:04:38.748Z,75.30
2023-07-18T21:09:41.295Z,76.10
2023-07-18T21:14:43.785Z,75.00
2023-07-18T21:19:46.860Z,76.90
2023-07-18T21:24:52.895Z,76.90
2023-07-18T21:29:55.787Z,76.70
2023-07-18T21:34:58.306Z,78.80
2023-07-18T21:40:01.063Z,77.10
2023-07-18T21:45:03.740Z,77.90
2023-07-18T21:50:06.489Z,78.20
2023-07-18T21:55:09.214Z,80.80
2023-07-18T22:00:12.719Z,78.80
2023-07-18T22:05:15.209Z,84.20
2023-07-18T22:10:17.784Z,86.50
2023-07-18T22:15:21.944Z,91.60
2023-07-18T22:20:24.682Z,87.10
2023-07-18T22:25:27.281Z,91.30
2023-07-18T22:30:29.813Z,90.80
2023-07-18T22:35:32.286Z,92.40
2023-07-18T22:40:34.818Z,92.30
2023-07-18T22:45:37.328Z,92.70
2023-07-18T22:50:39.810Z,94.10
2023-07-18T22:55:42.482Z,94.80
2023-07-18T23:00:44.997Z,95.10
2023-07-18T23:05:47.574Z,95.50
2023-07-18T23:10:50.138Z,96.80
2023-07-18T23:15:53.848Z,97.10
2023-07-18T23:20:57.460Z,97.00
2023-07-18T23:25:59.900Z,97.90
2023-07-18T23:31:05.087Z,96.80
2023-07-18T23:36:07.707Z,97.80
2023-07-18T23:41:10.201Z,98.60
2023-07-18T23:46:12.899Z,99.10
2023-07-18T23:51:15.455Z,99.90
2023-07-18T23:56:17.981Z,99.90
